Time;durP1;ratioP1;P1;durP2;ratioP2;P2;SDS_P1;SDS_P2;PMS_P1;PMS_P2;Temp;Humidity;BMP_temperature;BMP_pressure;BME280_temperature;BME280_humidity;BME280_pressure;Samples;Min_cycle;Max_cycle;Signal;HPM_P1;HPM_P2
2022/08/23 00:01:45;;;;;;;5.75;2.17;;;;;;;;;;4197805;28;20048;-63
2022/08/23 00:03:46;;;;;;;9.15;2.38;;;;;;;;;;4190502;28;20079;-62
2022/08/23 00:05:46;;;;;;;8.75;1.88;;;;;;;;;;4185292;28;20368;-62
2022/08/23 00:07:47;;;;;;;10.68;2.25;;;;;;;;;;4196428;28;20040;-63
2022/08/23 00:09:48;;;;;;;7.55;1.83;;;;;;;;;;4198458;28;20036;-62
2022/08/23 00:11:53;;;;;;;7.95;1.85;;;;;;;;;;4182557;28;20388;-63
2022/08/23 00:13:58;;;;;;;11.73;1.92;;;;;;;;;;4191562;28;20037;-67
2022/08/23 00:15:59;;;;;;;5.63;1.98;;;;;;;;;;4185614;28;20094;-65
2022/08/23 00:18:00;;;;;;;10.75;2.90;;;;;;;;;;4184410;28;20033;-67
2022/08/23 00:20:05;;;;;;;3.70;1.83;;;;;;;;;;4197992;28;20052;-66
2022/08/23 00:22:06;;;;;;;6.53;1.90;;;;;;;;;;4189788;28;20067;-64
2022/08/23 00:24:08;;;;;;;7.03;1.70;;;;;;;;;;4194184;28;20480;-66
2022/08/23 00:26:12;;;;;;;17.08;2.35;;;;;;;;;;4197759;28;20494;-66
2022/08/23 00:28:13;;;;;;;13.87;2.10;;;;;;;;;;4188026;28;20025;-66
2022/08/23 00:30:14;;;;;;;23.40;2.80;;;;;;;;;;4191895;28;20032;-66
2022/08/23 00:32:17;;;;;;;13.93;2.00;;;;;;;;;;4193556;28;20446;-65
2022/08/23 00:34:19;;;;;;;9.98;2.10;;;;;;;;;;4198361;28;20427;-65
2022/08/23 00:36:20;;;;;;;17.05;2.45;;;;;;;;;;4196479;28;20557;-63
2022/08/23 00:38:21;;;;;;;32.33;3.03;;;;;;;;;;4195789;28;20040;-63
2022/08/23 00:40:22;;;;;;;12.70;2.90;;;;;;;;;;4180112;28;20033;-65
2022/08/23 00:49:25;;;;;;;30.02;3.05;;;;;;;;;;4186819;28;20032;-63
2022/08/23 00:51:41;;;;;;;26.83;2.92;;;;;;;;;;4184076;28;20075;-63
2022/08/23 00:53:43;;;;;;;23.08;2.80;;;;;;;;;;4193921;28;20086;-63
2022/08/23 00:55:46;;;;;;;42.60;4.68;;;;;;;;;;4185110;28;20037;-63
2022/08/23 00:57:47;;;;;;;17.15;2.70;;;;;;;;;;4181071;28;20040;-64
2022/08/23 00:59:48;;;;;;;13.73;2.78;;;;;;;;;;4190192;28;20028;-63
2022/08/23 01:01:49;;;;;;;29.42;3.45;;;;;;;;;;4188831;28;20035;-64
2022/08/23 01:03:51;;;;;;;20.25;2.70;;;;;;;;;;4187548;28;20041;-65
2022/08/23 01:05:52;;;;;;;21.83;3.28;;;;;;;;;;4185185;28;20103;-64
2022/08/23 01:07:58;;;;;;;43.70;4.10;;;;;;;;;;4187187;28;20048;-64
2022/08/23 01:10:01;;;;;;;23.88;2.72;;;;;;;;;;4197015;28;20098;-66
2022/08/23 01:12:05;;;;;;;22.25;3.47;;;;;;;;;;4194802;28;20074;-65
2022/08/23 01:14:14;;;;;;;17.45;2.55;;;;;;;;;;4184763;28;20033;-63
2022/08/23 01:16:21;;;;;;;15.52;2.70;;;;;;;;;;4189868;28;20090;-64
2022/08/23 01:18:24;;;;;;;27.48;3.30;;;;;;;;;;4172394;28;20095;-65
2022/08/23 01:20:25;;;;;;;38.35;3.08;;;;;;;;;;4192839;28;20461;-64
2022/08/23 01:22:35;;;;;;;24.95;3.28;;;;;;;;;;4203920;28;20525;-63
2022/08/23 01:24:39;;;;;;;21.40;2.42;;;;;;;;;;4189237;28;20037;-64
2022/08/23 01:26:41;;;;;;;26.73;2.95;;;;;;;;;;4193027;28;20040;-62
2022/08/23 01:28:42;;;;;;;30.80;3.75;;;;;;;;;;4207505;28;20065;-64
2022/08/23 01:30:45;;;;;;;26.60;2.35;;;;;;;;;;4199956;28;20554;-64
2022/08/23 01:32:51;;;;;;;22.60;2.75;;;;;;;;;;4193274;28;20041;-64
2022/08/23 01:34:57;;;;;;;16.88;2.40;;;;;;;;;;4190972;28;20102;-62
2022/08/23 01:36:58;;;;;;;23.02;2.90;;;;;;;;;;4189201;28;20044;-61
2022/08/23 01:38:59;;;;;;;22.38;3.72;;;;;;;;;;4184633;28;20389;-62
2022/08/23 01:41:00;;;;;;;22.58;2.70;;;;;;;;;;4185042;28;20052;-62
2022/08/23 01:43:01;;;;;;;14.68;2.72;;;;;;;;;;4181943;28;20044;-62
2022/08/23 01:45:03;;;;;;;28.75;3.22;;;;;;;;;;4180256;28;20542;-61
2022/08/23 01:47:05;;;;;;;12.07;2.10;;;;;;;;;;4181035;28;20138;-61
2022/08/23 01:49:05;;;;;;;13.65;2.15;;;;;;;;;;4182892;28;20137;-62
2022/08/23 01:51:06;;;;;;;10.55;2.60;;;;;;;;;;4179625;28;20067;-62
2022/08/23 01:53:08;;;;;;;8.82;2.45;;;;;;;;;;4180503;28;20037;-61
2022/08/23 01:55:11;;;;;;;10.65;2.72;;;;;;;;;;4189244;28;20177;-62
2022/08/23 01:57:12;;;;;;;5.88;2.05;;;;;;;;;;4197041;28;20040;-62
2022/08/23 01:59:15;;;;;;;12.07;2.63;;;;;;;;;;4194519;28;20387;-62
2022/08/23 02:01:17;;;;;;;17.50;2.80;;;;;;;;;;4180685;28;20091;-62
2022/08/23 02:03:21;;;;;;;7.85;1.88;;;;;;;;;;4180408;28;20099;-62
2022/08/23 02:05:22;;;;;;;8.32;2.15;;;;;;;;;;4180021;28;20484;-62
2022/08/23 02:07:28;;;;;;;9.77;2.20;;;;;;;;;;4185537;28;20032;-61
2022/08/23 02:09:30;;;;;;;7.05;2.20;;;;;;;;;;4194345;28;20037;-61
2022/08/23 02:11:36;;;;;;;7.53;2.15;;;;;;;;;;4162306;28;20034;-62
2022/08/23 02:13:40;;;;;;;6.07;1.90;;;;;;;;;;4196804;28;20032;-62
2022/08/23 02:15:45;;;;;;;7.50;2.20;;;;;;;;;;4183343;28;20040;-61
2022/08/23 02:17:46;;;;;;;14.55;2.97;;;;;;;;;;4179666;28;20106;-62
2022/08/23 02:19:50;;;;;;;5.20;1.80;;;;;;;;;;4181727;28;20111;-61
2022/08/23 02:21:56;;;;;;;6.28;1.80;;;;;;;;;;4179556;28;20492;-61
2022/08/23 02:23:58;;;;;;;3.92;1.77;;;;;;;;;;4181742;28;20033;-62
2022/08/23 02:25:58;;;;;;;10.15;2.05;;;;;;;;;;4182619;28;20075;-62
2022/08/23 02:28:02;;;;;;;7.63;1.80;;;;;;;;;;4179056;28;20029;-62
2022/08/23 02:30:03;;;;;;;5.63;2.15;;;;;;;;;;4194658;28;20074;-61
2022/08/23 02:32:04;;;;;;;8.68;1.77;;;;;;;;;;4196828;28;20037;-62
2022/08/23 02:34:05;;;;;;;5.55;2.20;;;;;;;;;;4184967;28;20443;-61
2022/08/23 02:36:06;;;;;;;4.35;1.60;;;;;;;;;;4179280;28;20033;-62
2022/08/23 02:38:11;;;;;;;4.85;1.80;;;;;;;;;;4191208;28;20379;-63
2022/08/23 02:40:12;;;;;;;2.92;1.70;;;;;;;;;;4179467;28;20438;-62
2022/08/23 02:42:13;;;;;;;4.07;1.70;;;;;;;;;;4184950;28;20041;-62
2022/08/23 02:44:14;;;;;;;6.05;1.73;;;;;;;;;;4184766;28;20044;-62
2022/08/23 02:46:15;;;;;;;6.85;1.85;;;;;;;;;;4184895;28;20178;-62
2022/08/23 02:48:16;;;;;;;4.45;1.70;;;;;;;;;;4183641;28;20163;-62
2022/08/23 02:50:18;;;;;;;4.60;1.45;;;;;;;;;;4184944;28;20072;-62
2022/08/23 02:52:18;;;;;;;8.30;2.17;;;;;;;;;;4186351;28;20086;-62
2022/08/23 02:54:23;;;;;;;10.52;2.10;;;;;;;;;;4183437;28;20050;-63
2022/08/23 02:56:23;;;;;;;17.90;2.42;;;;;;;;;;4183530;28;20036;-61
2022/08/23 02:58:25;;;;;;;9.45;2.03;;;;;;;;;;4188358;28;20395;-62
2022/08/23 03:00:26;;;;;;;7.63;1.73;;;;;;;;;;4189517;28;20041;-62
2022/08/23 03:02:26;;;;;;;15.68;2.60;;;;;;;;;;4192490;28;20133;-62
2022/08/23 03:04:27;;;;;;;6.32;1.60;;;;;;;;;;4195767;28;20039;-62
2022/08/23 03:06:28;;;;;;;11.52;1.70;;;;;;;;;;4187257;28;20476;-61
2022/08/23 03:08:29;;;;;;;10.00;2.22;;;;;;;;;;4188254;28;20041;-62
2022/08/23 03:10:30;;;;;;;8.63;1.90;;;;;;;;;;4195095;28;20044;-62
2022/08/23 03:12:31;;;;;;;6.57;1.77;;;;;;;;;;4196384;28;20028;-63
2022/08/23 03:14:32;;;;;;;10.23;1.83;;;;;;;;;;4192395;28;20044;-62
2022/08/23 03:16:33;;;;;;;8.65;2.10;;;;;;;;;;4184331;28;20039;-62
2022/08/23 03:18:34;;;;;;;10.27;1.85;;;;;;;;;;4182083;28;20056;-63
2022/08/23 03:20:40;;;;;;;6.95;1.88;;;;;;;;;;4181698;28;20029;-63
2022/08/23 03:22:41;;;;;;;7.85;1.75;;;;;;;;;;4181813;28;20102;-63
2022/08/23 03:24:45;;;;;;;5.07;1.75;;;;;;;;;;4182564;28;20036;-62
2022/08/23 03:26:52;;;;;;;5.00;1.85;;;;;;;;;;4181836;28;20373;-62
2022/08/23 03:28:53;;;;;;;6.70;1.50;;;;;;;;;;4183132;28;20017;-62
2022/08/23 03:30:59;;;;;;;7.82;1.73;;;;;;;;;;4181658;28;20041;-62
2022/08/23 03:33:00;;;;;;;5.88;1.60;;;;;;;;;;4190823;28;20082;-62
2022/08/23 03:35:02;;;;;;;6.43;1.67;;;;;;;;;;4193373;28;20032;-61
2022/08/23 03:37:03;;;;;;;3.22;1.40;;;;;;;;;;4195136;28;20037;-61
2022/08/23 03:39:05;;;;;;;2.70;1.60;;;;;;;;;;4194045;28;20032;-61
2022/08/23 03:41:09;;;;;;;4.93;1.88;;;;;;;;;;4187780;28;20024;-62
2022/08/23 03:43:10;;;;;;;4.77;1.70;;;;;;;;;;4185580;28;20105;-62
2022/08/23 03:45:11;;;;;;;4.78;1.52;;;;;;;;;;4195543;28;20082;-62
2022/08/23 03:47:11;;;;;;;5.78;1.65;;;;;;;;;;4186967;28;20130;-62
2022/08/23 03:49:15;;;;;;;3.70;1.40;;;;;;;;;;4186025;28;20017;-62
2022/08/23 03:51:17;;;;;;;7.68;1.88;;;;;;;;;;4169293;28;20505;-62
2022/08/23 03:53:22;;;;;;;3.08;1.48;;;;;;;;;;4186483;28;20481;-62
2022/08/23 03:55:23;;;;;;;6.43;1.50;;;;;;;;;;4190257;28;20049;-62
2022/08/23 03:57:24;;;;;;;5.88;1.90;;;;;;;;;;4187201;28;20033;-62
2022/08/23 03:59:26;;;;;;;1.88;1.02;;;;;;;;;;4171589;28;20123;-62
2022/08/23 04:01:27;;;;;;;4.18;1.27;;;;;;;;;;4186058;28;20033;-61
2022/08/23 04:03:28;;;;;;;2.33;1.25;;;;;;;;;;4168279;28;20539;-61
2022/08/23 04:05:32;;;;;;;9.20;1.35;;;;;;;;;;4186698;28;20435;-61
2022/08/23 04:07:34;;;;;;;5.10;1.70;;;;;;;;;;4194648;28;20053;-61
2022/08/23 04:09:35;;;;;;;1.73;1.10;;;;;;;;;;4183523;28;20106;-62
2022/08/23 04:11:36;;;;;;;2.20;1.58;;;;;;;;;;4189660;28;20480;-62
2022/08/23 04:13:38;;;;;;;2.72;1.25;;;;;;;;;;4185991;28;20035;-61
2022/08/23 04:15:39;;;;;;;4.55;1.40;;;;;;;;;;4193615;28;20541;-61
2022/08/23 04:17:43;;;;;;;1.50;1.27;;;;;;;;;;4191082;28;20045;-62
2022/08/23 04:19:43;;;;;;;3.55;1.38;;;;;;;;;;4187223;28;20029;-62
2022/08/23 04:21:50;;;;;;;2.45;1.25;;;;;;;;;;4190638;28;20124;-62
2022/08/23 04:23:53;;;;;;;2.35;1.30;;;;;;;;;;4189049;28;20099;-61
2022/08/23 04:25:54;;;;;;;3.95;1.02;;;;;;;;;;4196531;28;20165;-61
2022/08/23 04:27:55;;;;;;;3.83;1.38;;;;;;;;;;4195200;28;20506;-62
2022/08/23 04:29:57;;;;;;;1.23;1.05;;;;;;;;;;4185588;28;20037;-62
2022/08/23 04:31:58;;;;;;;3.05;1.23;;;;;;;;;;4194826;28;20102;-62
2022/08/23 04:33:59;;;;;;;3.30;1.13;;;;;;;;;;4195662;28;20032;-61
2022/08/23 04:36:01;;;;;;;2.17;1.10;;;;;;;;;;4183547;28;20041;-61
2022/08/23 04:38:01;;;;;;;3.90;1.20;;;;;;;;;;4185374;28;20518;-62
2022/08/23 04:42:22;;;;;;;2.03;1.27;;;;;;;;;;4183477;28;20028;-61
2022/08/23 04:44:23;;;;;;;2.38;1.00;;;;;;;;;;4194149;28;20029;-61
2022/08/23 04:46:24;;;;;;;1.75;1.20;;;;;;;;;;4181872;28;20048;-62
2022/08/23 04:48:24;;;;;;;2.33;1.05;;;;;;;;;;4181232;28;20047;-62
2022/08/23 04:50:25;;;;;;;1.73;1.00;;;;;;;;;;4181458;28;20078;-61
2022/08/23 04:52:26;;;;;;;2.17;1.23;;;;;;;;;;4181018;28;20037;-62
2022/08/23 04:54:28;;;;;;;2.90;1.00;;;;;;;;;;4181489;28;20028;-62
2022/08/23 04:56:33;;;;;;;1.17;1.02;;;;;;;;;;4183972;28;20033;-61
2022/08/23 04:58:35;;;;;;;2.00;1.10;;;;;;;;;;4192333;28;20040;-62
2022/08/23 05:00:36;;;;;;;2.47;0.90;;;;;;;;;;4187718;28;20539;-62
2022/08/23 05:02:40;;;;;;;3.65;1.25;;;;;;;;;;4182059;28;20025;-62
2022/08/23 05:04:41;;;;;;;4.73;1.40;;;;;;;;;;4163176;28;20610;-61
2022/08/23 05:06:42;;;;;;;2.00;1.15;;;;;;;;;;4181255;28;20282;-62
2022/08/23 05:08:43;;;;;;;4.55;1.00;;;;;;;;;;4180173;28;20357;-62
2022/08/23 05:10:44;;;;;;;1.17;1.00;;;;;;;;;;4181423;28;20033;-62
2022/08/23 05:12:45;;;;;;;2.15;1.10;;;;;;;;;;4188793;28;20491;-62
2022/08/23 05:14:49;;;;;;;1.65;1.20;;;;;;;;;;4214015;28;20036;-61
2022/08/23 05:16:50;;;;;;;1.40;1.05;;;;;;;;;;4196195;28;20094;-62
2022/08/23 05:18:53;;;;;;;2.42;1.02;;;;;;;;;;4192493;28;20495;-61
2022/08/23 05:20:54;;;;;;;1.23;1.13;;;;;;;;;;4189358;28;20020;-62
2022/08/23 05:22:55;;;;;;;1.25;1.00;;;;;;;;;;4187962;28;20036;-62
2022/08/23 05:24:56;;;;;;;2.35;1.33;;;;;;;;;;4187253;28;20033;-62
2022/08/23 05:26:56;;;;;;;2.17;1.00;;;;;;;;;;4192035;28;20506;-62
2022/08/23 05:29:00;;;;;;;3.38;0.90;;;;;;;;;;4191873;28;20441;-61
2022/08/23 05:31:04;;;;;;;1.90;1.00;;;;;;;;;;4184888;28;20103;-62
2022/08/23 05:33:05;;;;;;;2.55;1.00;;;;;;;;;;4193703;28;20033;-62
2022/08/23 05:35:06;;;;;;;3.67;1.50;;;;;;;;;;4183686;28;20491;-61
2022/08/23 05:37:07;;;;;;;1.33;1.00;;;;;;;;;;4182478;28;20045;-62
2022/08/23 05:39:08;;;;;;;1.45;1.10;;;;;;;;;;4195537;28;20460;-62
2022/08/23 05:41:13;;;;;;;1.27;1.17;;;;;;;;;;4191867;28;20094;-62
2022/08/23 05:43:13;;;;;;;0.88;0.88;;;;;;;;;;4186031;28;20044;-62
2022/08/23 05:45:17;;;;;;;1.05;0.95;;;;;;;;;;4189509;28;20060;-62
2022/08/23 05:47:19;;;;;;;1.08;0.90;;;;;;;;;;4188803;28;20086;-62
2022/08/23 05:49:19;;;;;;;1.75;1.00;;;;;;;;;;4186205;28;20484;-62
2022/08/23 05:51:24;;;;;;;1.13;1.00;;;;;;;;;;4191511;28;20036;-60
2022/08/23 05:53:25;;;;;;;;;;;;;;;;;;4191148;28;20496;-61
2022/08/23 05:55:29;;;;;;;0.98;0.88;;;;;;;;;;4185315;28;20043;-62
2022/08/23 05:57:30;;;;;;;1.23;0.80;;;;;;;;;;4185422;28;20188;-61
2022/08/23 05:59:31;;;;;;;1.98;1.25;;;;;;;;;;4181817;28;20067;-63
2022/08/23 06:01:32;;;;;;;0.80;0.80;;;;;;;;;;4182762;28;20476;-61
2022/08/23 06:03:33;;;;;;;3.05;0.85;;;;;;;;;;4192308;28;20048;-62
2022/08/23 06:05:37;;;;;;;0.98;0.90;;;;;;;;;;4186459;28;20036;-61
2022/08/23 06:07:38;;;;;;;1.02;0.93;;;;;;;;;;4186590;28;20464;-61
2022/08/23 06:09:41;;;;;;;0.88;0.70;;;;;;;;;;4181812;28;20040;-61
2022/08/23 06:11:54;;;;;;;2.00;0.85;;;;;;;;;;4190573;28;20036;-61
2022/08/23 06:13:59;;;;;;;1.52;1.00;;;;;;;;;;4183558;28;20037;-62
2022/08/23 06:16:00;;;;;;;1.40;0.80;;;;;;;;;;4186918;28;20041;-61
2022/08/23 06:18:01;;;;;;;0.93;0.90;;;;;;;;;;4192897;28;20982;-62
2022/08/23 06:20:02;;;;;;;1.73;0.73;;;;;;;;;;4194021;28;20032;-62
2022/08/23 06:22:06;;;;;;;1.15;0.80;;;;;;;;;;4195515;28;20088;-62
2022/08/23 06:24:07;;;;;;;1.17;0.80;;;;;;;;;;4194591;28;20439;-61
2022/08/23 06:26:14;;;;;;;2.85;0.98;;;;;;;;;;4188980;28;20024;-61
2022/08/23 06:28:14;;;;;;;1.13;0.75;;;;;;;;;;4191317;28;20106;-62
2022/08/23 06:30:15;;;;;;;0.90;0.77;;;;;;;;;;4187454;28;20827;-63
2022/08/23 06:32:16;;;;;;;1.17;1.00;;;;;;;;;;4184226;28;20372;-62
2022/08/23 06:34:33;;;;;;;1.58;0.88;;;;;;;;;;4184039;28;20448;-62
2022/08/23 06:36:36;;;;;;;1.30;1.00;;;;;;;;;;4184363;28;20047;-62
2022/08/23 06:38:36;;;;;;;0.93;0.77;;;;;;;;;;4182754;28;20037;-62
2022/08/23 06:40:37;;;;;;;1.13;0.77;;;;;;;;;;4166684;28;20096;-62
2022/08/23 06:42:41;;;;;;;0.50;0.50;;;;;;;;;;4183870;28;20961;-63
2022/08/23 06:44:51;;;;;;;1.17;0.95;;;;;;;;;;4186152;28;20558;-62
2022/08/23 06:46:55;;;;;;;2.58;0.88;;;;;;;;;;4185531;28;20028;-62
2022/08/23 06:48:59;;;;;;;1.10;1.00;;;;;;;;;;4187269;28;20491;-62
2022/08/23 06:51:03;;;;;;;0.82;0.82;;;;;;;;;;4183624;28;20083;-63
2022/08/23 06:53:04;;;;;;;1.20;0.70;;;;;;;;;;4166001;28;20041;-62
2022/08/23 06:55:07;;;;;;;1.30;0.95;;;;;;;;;;4182311;28;20384;-62
2022/08/23 06:57:08;;;;;;;1.42;0.80;;;;;;;;;;4182478;28;20041;-63
2022/08/23 06:59:10;;;;;;;2.78;0.90;;;;;;;;;;4182689;28;20519;-62
2022/08/23 07:01:17;;;;;;;1.08;0.73;;;;;;;;;;4182064;28;20094;-62
2022/08/23 07:03:20;;;;;;;0.80;0.80;;;;;;;;;;4182350;28;20052;-62
2022/08/23 07:05:21;;;;;;;0.70;0.68;;;;;;;;;;4183680;28;20021;-62
2022/08/23 07:07:22;;;;;;;1.10;0.98;;;;;;;;;;4188778;28;20325;-62
2022/08/23 07:09:23;;;;;;;0.90;0.70;;;;;;;;;;4184004;28;20449;-62
2022/08/23 07:11:24;;;;;;;0.80;0.80;;;;;;;;;;4191166;28;20067;-62
2022/08/23 07:13:25;;;;;;;0.98;0.85;;;;;;;;;;4185104;28;20465;-62
2022/08/23 07:15:26;;;;;;;1.20;0.75;;;;;;;;;;4193054;28;20075;-62
2022/08/23 07:17:27;;;;;;;1.08;0.80;;;;;;;;;;4192005;28;20071;-62
2022/08/23 07:19:32;;;;;;;0.85;0.60;;;;;;;;;;4184374;28;20064;-62
2022/08/23 07:21:34;;;;;;;0.88;0.85;;;;;;;;;;4194754;28;20045;-62
2022/08/23 07:23:35;;;;;;;0.80;0.80;;;;;;;;;;4185099;28;20107;-62
2022/08/23 07:25:39;;;;;;;0.90;0.90;;;;;;;;;;4187560;28;20032;-62
2022/08/23 07:27:39;;;;;;;0.90;0.73;;;;;;;;;;4192950;28;20090;-62
2022/08/23 07:29:43;;;;;;;0.90;0.80;;;;;;;;;;4186804;28;20040;-62
2022/08/23 07:31:45;;;;;;;1.65;0.85;;;;;;;;;;4189351;28;20142;-62
2022/08/23 07:33:47;;;;;;;2.22;0.80;;;;;;;;;;4191579;28;20037;-62
2022/08/23 07:35:49;;;;;;;0.77;0.70;;;;;;;;;;4185964;28;20037;-62
2022/08/23 07:37:49;;;;;;;0.57;0.57;;;;;;;;;;4191942;28;20032;-62
2022/08/23 07:39:50;;;;;;;1.10;0.93;;;;;;;;;;4183698;28;20083;-62
2022/08/23 07:41:54;;;;;;;1.50;0.80;;;;;;;;;;4185296;28;20431;-62
2022/08/23 07:44:00;;;;;;;0.63;0.63;;;;;;;;;;4185485;28;20443;-62
2022/08/23 07:46:02;;;;;;;0.77;0.73;;;;;;;;;;4185270;28;20040;-61
2022/08/23 07:48:03;;;;;;;0.88;0.80;;;;;;;;;;4195498;28;20102;-61
2022/08/23 07:50:04;;;;;;;0.85;0.80;;;;;;;;;;4195575;28;20088;-62
2022/08/23 07:52:05;;;;;;;0.80;0.77;;;;;;;;;;4185776;28;20087;-64
2022/08/23 07:54:07;;;;;;;1.13;0.63;;;;;;;;;;4185465;28;20037;-62
2022/08/23 07:56:08;;;;;;;1.55;0.80;;;;;;;;;;4186198;28;20082;-62
2022/08/23 07:58:12;;;;;;;1.20;0.98;;;;;;;;;;4190206;28;20078;-62
2022/08/23 08:00:14;;;;;;;0.98;0.90;;;;;;;;;;4192606;28;20044;-62
2022/08/23 08:02:14;;;;;;;1.52;1.10;;;;;;;;;;4192962;28;20041;-62
2022/08/23 08:04:15;;;;;;;1.33;1.00;;;;;;;;;;4192251;28;20117;-62
2022/08/23 08:06:18;;;;;;;1.15;0.90;;;;;;;;;;4187026;28;20495;-62
2022/08/23 08:08:18;;;;;;;1.60;0.90;;;;;;;;;;4186541;28;20106;-62
2022/08/23 08:10:28;;;;;;;2.50;0.90;;;;;;;;;;4196636;28;20028;-62
2022/08/23 08:12:30;;;;;;;1.10;0.90;;;;;;;;;;4184496;28;20040;-62
2022/08/23 08:14:31;;;;;;;0.70;0.70;;;;;;;;;;4185968;28;20036;-62
2022/08/23 08:16:37;;;;;;;1.15;0.90;;;;;;;;;;4193726;28;20047;-63
2022/08/23 08:18:38;;;;;;;0.75;0.75;;;;;;;;;;4190099;28;20117;-62
2022/08/23 08:20:42;;;;;;;0.88;0.80;;;;;;;;;;4185516;28;20103;-63
2022/08/23 08:22:42;;;;;;;0.90;0.77;;;;;;;;;;4192138;28;20476;-62
2022/08/23 08:24:43;;;;;;;0.65;0.65;;;;;;;;;;4186408;28;20055;-63
2022/08/23 08:26:48;;;;;;;2.97;0.93;;;;;;;;;;4184900;28;20033;-62
2022/08/23 08:28:49;;;;;;;;;;;;;;;;;;4182828;28;20480;-62
2022/08/23 08:30:50;;;;;;;1.00;0.90;;;;;;;;;;4193780;28;19915;-62
2022/08/23 08:32:50;;;;;;;2.22;0.80;;;;;;;;;;4193147;28;20041;-62
2022/08/23 08:34:51;;;;;;;0.63;0.63;;;;;;;;;;4196016;28;20036;-62
2022/08/23 08:36:53;;;;;;;0.80;0.80;;;;;;;;;;4194051;28;20036;-62
2022/08/23 08:38:54;;;;;;;0.70;0.63;;;;;;;;;;4185588;28;20045;-62
2022/08/23 08:41:00;;;;;;;2.22;1.00;;;;;;;;;;4189929;28;20472;-62
2022/08/23 08:43:19;;;;;;;0.88;0.80;;;;;;;;;;4186119;28;20078;-60
2022/08/23 08:45:25;;;;;;;0.95;0.70;;;;;;;;;;4185346;28;20037;-61
2022/08/23 08:47:28;;;;;;;1.88;0.77;;;;;;;;;;4189776;28;20082;-62
2022/08/23 08:49:58;;;;;;;1.48;0.70;;;;;;;;;;4188449;28;20113;-62
2022/08/23 08:52:19;;;;;;;0.73;0.73;;;;;;;;;;4169594;28;20036;-62
2022/08/23 08:54:23;;;;;;;1.17;0.80;;;;;;;;;;4174433;28;20526;-62
2022/08/23 08:56:45;;;;;;;0.82;0.77;;;;;;;;;;4185807;28;20036;-61
2022/08/23 08:58:54;;;;;;;0.93;0.80;;;;;;;;;;4186213;28;20106;-61
2022/08/23 09:00:55;;;;;;;0.88;0.70;;;;;;;;;;4190193;28;20558;-62
2022/08/23 09:02:59;;;;;;;0.77;0.60;;;;;;;;;;4182715;28;20431;-61
2022/08/23 09:05:02;;;;;;;2.25;0.77;;;;;;;;;;4193224;28;20037;-61
2022/08/23 09:07:06;;;;;;;1.00;0.70;;;;;;;;;;4192611;28;20040;-62
2022/08/23 09:09:25;;;;;;;0.80;0.70;;;;;;;;;;4191109;28;20109;-61
2022/08/23 09:11:44;;;;;;;0.80;0.80;;;;;;;;;;4187996;28;20160;-61
2022/08/23 09:13:59;;;;;;;0.85;0.82;;;;;;;;;;4182013;28;21139;-61
2022/08/23 09:16:18;;;;;;;0.93;0.75;;;;;;;;;;4192527;28;20373;-62
2022/08/23 09:18:23;;;;;;;0.95;0.73;;;;;;;;;;4186520;28;20086;-62
2022/08/23 09:20:28;;;;;;;0.70;0.57;;;;;;;;;;4182301;28;20041;-61
2022/08/23 09:22:28;;;;;;;;;;;;;;;;;;4180652;28;20070;-62
2022/08/23 09:24:29;;;;;;;2.45;1.02;;;;;;;;;;4180662;28;19916;-61
2022/08/23 09:26:30;;;;;;;1.13;0.90;;;;;;;;;;4180598;28;20028;-62
2022/08/23 09:28:34;;;;;;;0.70;0.70;;;;;;;;;;4181033;28;20094;-62
2022/08/23 09:30:53;;;;;;;0.60;0.60;;;;;;;;;;4183977;28;20551;-62
2022/08/23 09:32:54;;;;;;;1.95;0.82;;;;;;;;;;4183496;28;20041;-62
2022/08/23 09:35:06;;;;;;;0.65;0.65;;;;;;;;;;4178631;28;20440;-62
2022/08/23 09:37:10;;;;;;;1.13;0.90;;;;;;;;;;4183434;28;20041;-62
2022/08/23 09:39:26;;;;;;;0.90;0.65;;;;;;;;;;4180167;28;20095;-62
2022/08/23 09:41:31;;;;;;;0.82;0.77;;;;;;;;;;4179953;28;20063;-62
2022/08/23 09:43:42;;;;;;;2.53;0.98;;;;;;;;;;4178062;28;20048;-62
2022/08/23 09:45:49;;;;;;;0.80;0.70;;;;;;;;;;4180543;28;20084;-62
2022/08/23 09:47:52;;;;;;;0.60;0.52;;;;;;;;;;4182655;28;20110;-61
2022/08/23 09:49:53;;;;;;;1.27;0.80;;;;;;;;;;4194958;28;20452;-61
2022/08/23 09:51:55;;;;;;;1.48;0.70;;;;;;;;;;4186115;28;20112;-61
2022/08/23 09:54:04;;;;;;;0.63;0.63;;;;;;;;;;4197703;28;20472;-61
2022/08/23 09:56:10;;;;;;;0.90;0.68;;;;;;;;;;4191775;28;20092;-61
2022/08/23 09:58:35;;;;;;;0.95;0.70;;;;;;;;;;4194860;28;20044;-61
2022/08/23 10:00:39;;;;;;;0.70;0.68;;;;;;;;;;4181053;28;20094;-62
2022/08/23 10:02:40;;;;;;;0.77;0.77;;;;;;;;;;4186067;28;20485;-61
2022/08/23 10:04:42;;;;;;;0.57;0.57;;;;;;;;;;4181929;28;20049;-62
2022/08/23 10:06:45;;;;;;;0.70;0.70;;;;;;;;;;4190815;28;20048;-61
2022/08/23 10:08:53;;;;;;;0.90;0.80;;;;;;;;;;4183101;28;20045;-61
2022/08/23 10:10:57;;;;;;;0.70;0.70;;;;;;;;;;4181494;28;20052;-61
2022/08/23 10:12:58;;;;;;;0.70;0.70;;;;;;;;;;4182840;28;20106;-61
2022/08/23 10:14:59;;;;;;;0.80;0.70;;;;;;;;;;4188714;28;20285;-62
2022/08/23 10:17:07;;;;;;;0.70;0.70;;;;;;;;;;4191645;28;20452;-62
2022/08/23 10:19:22;;;;;;;1.10;0.90;;;;;;;;;;4186980;28;20087;-62
2022/08/23 10:21:36;;;;;;;0.80;0.80;;;;;;;;;;4184129;28;20094;-61
2022/08/23 10:23:49;;;;;;;0.60;0.60;;;;;;;;;;4181872;28;20037;-61
2022/08/23 10:25:54;;;;;;;0.60;0.60;;;;;;;;;;4182898;28;20041;-61
2022/08/23 10:30:42;;;;;;;1.20;0.80;;;;;;;;;;4185257;28;20033;-62
2022/08/23 10:32:52;;;;;;;1.00;0.90;;;;;;;;;;4193079;28;20463;-61
2022/08/23 10:35:10;;;;;;;0.60;0.60;;;;;;;;;;4179099;28;20037;-62
2022/08/23 10:37:29;;;;;;;1.23;0.80;;;;;;;;;;4186629;28;20055;-61
2022/08/23 10:39:30;;;;;;;1.00;0.90;;;;;;;;;;4185950;28;20057;-61
2022/08/23 10:41:49;;;;;;;1.05;0.77;;;;;;;;;;4190058;28;20041;-61
2022/08/23 10:43:57;;;;;;;0.80;0.80;;;;;;;;;;4182495;28;20041;-62
2022/08/23 10:46:05;;;;;;;0.95;0.90;;;;;;;;;;4185313;28;20439;-62
2022/08/23 10:48:14;;;;;;;0.70;0.70;;;;;;;;;;4183329;28;20033;-61
2022/08/23 10:50:18;;;;;;;0.70;0.70;;;;;;;;;;4190427;28;20488;-62
2022/08/23 10:52:22;;;;;;;0.95;0.82;;;;;;;;;;4187123;28;20094;-62
2022/08/23 10:54:45;;;;;;;0.60;0.60;;;;;;;;;;4188727;28;20036;-61
2022/08/23 10:56:46;;;;;;;0.80;0.80;;;;;;;;;;4184007;28;20033;-62
2022/08/23 10:58:50;;;;;;;0.88;0.88;;;;;;;;;;4195277;28;20035;-62
2022/08/23 11:00:53;;;;;;;0.90;0.90;;;;;;;;;;4189346;28;20094;-62
2022/08/23 11:02:54;;;;;;;0.93;0.77;;;;;;;;;;4184433;28;20483;-62
2022/08/23 11:05:05;;;;;;;0.80;0.80;;;;;;;;;;4195090;28;20102;-62
2022/08/23 11:07:20;;;;;;;0.90;0.80;;;;;;;;;;4187425;28;20483;-62
2022/08/23 11:09:21;;;;;;;1.20;1.00;;;;;;;;;;4185114;28;20045;-61
2022/08/23 11:11:35;;;;;;;5.93;1.17;;;;;;;;;;4192098;28;20041;-61
2022/08/23 11:13:36;;;;;;;2.20;0.80;;;;;;;;;;4186810;28;20380;-61
2022/08/23 11:15:43;;;;;;;4.05;0.80;;;;;;;;;;4177159;28;20305;-61
2022/08/23 11:17:50;;;;;;;1.45;0.80;;;;;;;;;;4196857;28;20150;-62
2022/08/23 11:19:59;;;;;;;1.80;0.80;;;;;;;;;;4187960;28;20431;-62
2022/08/23 11:22:32;;;;;;;29.25;2.50;;;;;;;;;;4183440;28;20427;-63
2022/08/23 11:24:47;;;;;;;10.57;1.10;;;;;;;;;;4115750;28;20038;-61
2022/08/23 11:26:51;;;;;;;6.75;1.55;;;;;;;;;;4120861;28;20093;-61
2022/08/23 11:29:16;;;;;;;4.30;0.95;;;;;;;;;;4174719;28;20103;-61
2022/08/23 11:31:26;;;;;;;4.90;1.00;;;;;;;;;;4182682;28;20439;-61
2022/08/23 11:33:39;;;;;;;5.00;1.50;;;;;;;;;;4181368;28;20510;-60
2022/08/23 11:35:41;;;;;;;6.63;1.30;;;;;;;;;;4183397;28;20077;-61
2022/08/23 11:37:48;;;;;;;10.35;1.20;;;;;;;;;;4181892;28;20041;-61
2022/08/23 11:40:01;;;;;;;5.28;1.45;;;;;;;;;;4182749;28;20291;-61
2022/08/23 11:42:04;;;;;;;6.38;1.63;;;;;;;;;;4182402;28;20071;-60
2022/08/23 11:44:09;;;;;;;3.72;1.00;;;;;;;;;;4187932;28;20148;-61
2022/08/23 11:46:15;;;;;;;6.97;1.30;;;;;;;;;;4198521;28;20071;-61
2022/08/23 11:48:28;;;;;;;11.60;1.83;;;;;;;;;;4199325;28;20032;-62
2022/08/23 11:50:38;;;;;;;3.97;1.30;;;;;;;;;;4183840;28;20041;-60
2022/08/23 11:52:51;;;;;;;5.45;1.10;;;;;;;;;;4181437;28;20036;-61
2022/08/23 11:55:04;;;;;;;7.70;1.30;;;;;;;;;;4187714;28;20125;-60
2022/08/23 11:57:05;;;;;;;3.88;1.52;;;;;;;;;;4199105;28;20082;-60
2022/08/23 11:59:25;;;;;;;4.97;1.30;;;;;;;;;;4192242;28;20033;-60
2022/08/23 12:01:32;;;;;;;3.22;1.20;;;;;;;;;;4182143;28;20083;-60
2022/08/23 12:03:52;;;;;;;3.08;1.20;;;;;;;;;;4181342;28;20270;-59
2022/08/23 12:05:53;;;;;;;26.17;3.22;;;;;;;;;;4186192;28;20037;-60
2022/08/23 12:08:02;;;;;;;1.65;1.00;;;;;;;;;;4195842;28;20567;-60
2022/08/23 12:10:03;;;;;;;8.18;1.48;;;;;;;;;;4182684;28;20098;-59
2022/08/23 12:12:09;;;;;;;5.47;1.60;;;;;;;;;;4192910;28;20037;-60
2022/08/23 12:14:28;;;;;;;3.58;1.10;;;;;;;;;;4175360;28;20037;-62
2022/08/23 12:16:32;;;;;;;5.28;1.33;;;;;;;;;;4181334;28;20412;-62
2022/08/23 12:18:35;;;;;;;12.75;1.75;;;;;;;;;;4181350;28;20033;-60
2022/08/23 12:20:36;;;;;;;8.20;1.73;;;;;;;;;;4181292;28;20029;-62
2022/08/23 12:22:56;;;;;;;6.15;1.35;;;;;;;;;;4164068;28;20033;-62
2022/08/23 12:24:59;;;;;;;3.20;1.20;;;;;;;;;;4181784;28;20110;-63
2022/08/23 12:27:06;;;;;;;4.03;1.38;;;;;;;;;;4181154;28;20090;-62
2022/08/23 12:29:25;;;;;;;3.75;1.42;;;;;;;;;;4180641;28;20443;-60
2022/08/23 12:31:26;;;;;;;3.83;1.30;;;;;;;;;;4181412;28;20037;-62
2022/08/23 12:33:35;;;;;;;5.18;1.30;;;;;;;;;;4181563;28;20040;-60
2022/08/23 12:35:52;;;;;;;7.50;1.60;;;;;;;;;;4181770;28;20041;-61